createdAt,value
2022-09-22T00:01:33.058Z,13.55
2022-09-22T00:04:06.157Z,15.25
2022-09-22T00:06:38.917Z,11.10
2022-09-22T00:09:09.795Z,11.37
2022-09-22T00:11:40.449Z,9.57
2022-09-22T00:14:12.112Z,11.30
2022-09-22T00:16:42.461Z,10.95
2022-09-22T00:19:16.541Z,14.13
2022-09-22T00:21:46.362Z,12.52
2022-09-22T00:24:16.129Z,12.27
2022-09-22T00:26:44.909Z,11.20
2022-09-22T00:29:13.408Z,13.48
2022-09-22T00:31:43.183Z,12.30
2022-09-22T00:34:16.113Z,12.77
2022-09-22T00:36:46.611Z,13.67
2022-09-22T00:39:16.435Z,13.68
2022-09-22T00:41:48.499Z,12.65
2022-09-22T00:44:36.069Z,10.57
2022-09-22T00:47:13.475Z,12.98
2022-09-22T00:49:49.200Z,12.60
2022-09-22T00:52:23.171Z,13.50
2022-09-22T00:54:54.646Z,13.95
2022-09-22T00:57:26.081Z,12.25
2022-09-22T00:59:55.585Z,14.05
2022-09-22T01:02:23.918Z,15.38
2022-09-22T01:04:53.611Z,11.32
2022-09-22T01:07:26.230Z,13.50
2022-09-22T01:09:55.816Z,11.82
2022-09-22T01:12:25.822Z,11.77
2022-09-22T01:15:11.846Z,12.35
2022-09-22T01:17:50.272Z,14.23
2022-09-22T01:21:02.901Z,14.88
2022-09-22T01:24:07.358Z,14.38
2022-09-22T01:27:01.848Z,12.32
2022-09-22T01:30:08.513Z,12.85
2022-09-22T01:32:43.344Z,14.93
2022-09-22T01:35:20.930Z,15.65
2022-09-22T01:37:58.313Z,14.07
2022-09-22T01:40:34.484Z,12.82
2022-09-22T01:43:19.225Z,11.88
2022-09-22T01:45:49.650Z,11.10
2022-09-22T01:48:23.965Z,10.82
2022-09-22T01:50:56.486Z,14.48
2022-09-22T01:53:30.663Z,14.32
2022-09-22T01:56:04.647Z,18.42
2022-09-22T01:58:36.171Z,14.95
2022-09-22T02:01:13.765Z,14.27
2022-09-22T02:03:47.738Z,15.80
2022-09-22T02:06:21.328Z,15.80
2022-09-22T02:08:55.632Z,16.80
2022-09-22T02:11:24.702Z,14.68
2022-09-22T02:13:53.428Z,15.40
2022-09-22T02:16:25.242Z,17.73
2022-09-22T02:19:06.251Z,16.95
2022-09-22T02:21:40.947Z,17.67
2022-09-22T02:24:24.414Z,19.38
2022-09-22T02:26:53.461Z,15.82
2022-09-22T02:29:22.716Z,18.40
2022-09-22T02:31:52.582Z,17.25
2022-09-22T02:34:22.930Z,17.75
2022-09-22T02:36:58.590Z,22.23
2022-09-22T02:39:31.648Z,20.83
2022-09-22T02:42:20.008Z,20.13
2022-09-22T02:44:52.652Z,17.40
2022-09-22T02:47:25.996Z,18.23
2022-09-22T02:49:56.940Z,23.15
2022-09-22T02:52:26.474Z,23.88
2022-09-22T02:54:55.564Z,19.77
2022-09-22T02:57:24.364Z,19.02
2022-09-22T02:59:52.554Z,16.25
2022-09-22T03:02:20.975Z,15.65
2022-09-22T03:04:49.394Z,16.90
2022-09-22T03:07:19.138Z,17.45
2022-09-22T03:09:47.406Z,17.80
2022-09-22T03:12:15.923Z,14.73
2022-09-22T03:14:44.090Z,15.48
2022-09-22T03:17:12.387Z,15.05
2022-09-22T03:19:40.724Z,15.75
2022-09-22T03:22:08.886Z,14.90
2022-09-22T03:24:38.550Z,17.45
2022-09-22T03:27:06.934Z,15.88
2022-09-22T03:29:35.078Z,16.23
2022-09-22T03:32:03.885Z,15.48
2022-09-22T03:34:32.176Z,18.23
2022-09-22T03:37:00.282Z,17.70
2022-09-22T03:39:28.666Z,21.48
2022-09-22T03:41:58.546Z,19.05
2022-09-22T03:44:27.193Z,15.35
2022-09-22T03:46:55.707Z,19.58
2022-09-22T03:49:24.426Z,17.83
2022-09-22T03:51:53.989Z,16.55
2022-09-22T03:54:22.728Z,18.60
2022-09-22T03:56:51.472Z,20.88
2022-09-22T03:59:20.986Z,17.60
2022-09-22T04:01:49.303Z,19.17
2022-09-22T04:04:18.022Z,23.55
2022-09-22T04:06:46.139Z,19.23
2022-09-22T04:09:17.670Z,20.98
2022-09-22T04:11:45.994Z,16.98
2022-09-22T04:14:15.001Z,20.13
2022-09-22T04:16:46.180Z,19.73
2022-09-22T04:19:15.725Z,17.63
2022-09-22T04:21:45.331Z,15.80
2022-09-22T04:24:13.518Z,17.50
2022-09-22T04:26:56.636Z,18.05
2022-09-22T04:29:30.764Z,17.52
2022-09-22T04:32:00.455Z,22.25
2022-09-22T04:34:28.643Z,21.40
2022-09-22T04:36:57.050Z,20.95
2022-09-22T04:39:25.537Z,20.27
2022-09-22T04:41:53.739Z,18.85
2022-09-22T04:44:22.001Z,19.83
2022-09-22T04:46:50.674Z,18.50
2022-09-22T04:49:20.452Z,17.15
2022-09-22T04:51:49.231Z,21.23
2022-09-22T04:54:17.489Z,19.73
2022-09-22T04:56:45.629Z,20.65
2022-09-22T04:59:14.342Z,16.42
2022-09-22T05:01:42.613Z,20.98
2022-09-22T05:04:10.804Z,21.35
2022-09-22T05:06:41.822Z,20.25
2022-09-22T05:09:10.113Z,23.80
2022-09-22T05:11:39.609Z,23.25
2022-09-22T05:14:07.891Z,19.98
2022-09-22T05:16:36.873Z,27.35
2022-09-22T05:19:05.040Z,23.70
2022-09-22T05:21:33.266Z,22.50
2022-09-22T05:24:03.556Z,23.70
2022-09-22T05:26:32.113Z,25.52
2022-09-22T05:29:00.423Z,22.92
2022-09-22T05:31:28.800Z,23.30
2022-09-22T05:33:57.175Z,24.40
2022-09-22T05:36:25.620Z,21.60
2022-09-22T05:38:54.037Z,23.48
2022-09-22T05:41:23.619Z,21.13
2022-09-22T05:43:51.917Z,27.50
2022-09-22T05:46:20.220Z,22.52
2022-09-22T05:48:48.551Z,22.35
2022-09-22T05:51:16.684Z,24.38
2022-09-22T05:53:45.088Z,24.80
2022-09-22T05:56:13.250Z,28.95
2022-09-22T05:58:42.929Z,25.90
2022-09-22T06:01:11.230Z,25.75
2022-09-22T06:03:39.498Z,22.58
2022-09-22T06:06:08.021Z,20.48
2022-09-22T06:08:36.228Z,21.33
2022-09-22T06:11:04.511Z,20.30
2022-09-22T06:13:32.897Z,20.23
2022-09-22T06:16:04.586Z,18.52
2022-09-22T06:18:32.804Z,17.70
2022-09-22T06:21:01.051Z,16.48
2022-09-22T06:23:29.733Z,15.02
2022-09-22T06:25:59.168Z,16.42
2022-09-22T06:28:27.483Z,14.57
2022-09-22T06:31:00.851Z,16.65
2022-09-22T06:33:30.963Z,15.52
2022-09-22T06:36:01.167Z,14.63
2022-09-22T06:38:32.235Z,14.07
2022-09-22T06:41:01.867Z,17.13
2022-09-22T06:43:30.298Z,14.95
2022-09-22T06:46:03.138Z,15.75
2022-09-22T06:48:32.740Z,17.30
2022-09-22T06:51:00.951Z,15.75
2022-09-22T06:53:29.626Z,15.88
2022-09-22T06:56:00.472Z,15.48
2022-09-22T06:58:29.699Z,17.27
2022-09-22T07:01:08.871Z,18.98
2022-09-22T07:03:41.725Z,18.67
2022-09-22T07:06:11.567Z,17.63
2022-09-22T07:08:39.797Z,17.42
2022-09-22T07:11:09.588Z,17.33
2022-09-22T07:13:41.177Z,17.15
2022-09-22T07:16:12.467Z,17.98
2022-09-22T07:18:44.135Z,15.82
2022-09-22T07:21:14.437Z,15.35
2022-09-22T07:23:44.305Z,15.20
2022-09-22T07:26:20.715Z,13.05
2022-09-22T07:28:50.625Z,14.00
2022-09-22T07:31:19.389Z,17.02
2022-09-22T07:33:48.936Z,11.75
2022-09-22T07:36:19.194Z,12.45
2022-09-22T07:38:50.181Z,13.63
2022-09-22T07:41:20.540Z,12.40
2022-09-22T07:43:51.706Z,10.40
2022-09-22T07:46:20.234Z,10.75
2022-09-22T07:48:50.307Z,10.15
2022-09-22T07:51:21.757Z,10.18
2022-09-22T07:53:51.944Z,10.90
2022-09-22T07:56:21.438Z,13.98
2022-09-22T07:58:51.691Z,10.20
2022-09-22T08:01:21.862Z,12.18
2022-09-22T08:03:52.255Z,9.93
2022-09-22T08:06:23.721Z,12.02
2022-09-22T08:08:56.678Z,10.30
2022-09-22T08:11:26.798Z,12.17
2022-09-22T08:13:57.444Z,10.07
2022-09-22T08:16:28.946Z,11.52
2022-09-22T08:19:00.340Z,9.15
2022-09-22T08:21:35.352Z,11.93
2022-09-22T08:24:04.559Z,9.52
2022-09-22T08:26:33.174Z,10.88
2022-09-22T08:29:01.553Z,11.43
2022-09-22T08:31:30.693Z,9.55
2022-09-22T08:34:00.710Z,13.73
2022-09-22T08:36:29.155Z,10.00
2022-09-22T08:38:59.670Z,8.85
2022-09-22T08:41:38.422Z,9.07
2022-09-22T08:44:19.670Z,8.18
2022-09-22T08:46:49.056Z,7.78
2022-09-22T08:49:43.665Z,8.27
2022-09-22T08:52:20.962Z,8.75
2022-09-22T08:54:50.406Z,8.57
2022-09-22T08:57:36.932Z,7.68
2022-09-22T09:00:08.857Z,8.00
2022-09-22T09:02:42.608Z,9.38
2022-09-22T09:05:56.092Z,9.80
2022-09-22T09:09:06.822Z,7.07
2022-09-22T09:12:06.284Z,6.32
2022-09-22T09:14:58.077Z,6.47
2022-09-22T09:17:29.099Z,6.97
2022-09-22T09:20:01.421Z,7.07
2022-09-22T09:22:34.102Z,6.60
2022-09-22T09:25:25.242Z,6.25
2022-09-22T09:27:58.904Z,7.10
2022-09-22T09:30:27.473Z,6.28
2022-09-22T09:32:59.533Z,5.82
2022-09-22T09:35:44.290Z,6.95
2022-09-22T09:38:15.906Z,4.65
2022-09-22T09:40:54.272Z,6.88
2022-09-22T09:43:25.238Z,6.53
2022-09-22T09:46:03.200Z,7.72
2022-09-22T09:48:39.026Z,5.60
2022-09-22T09:51:07.611Z,7.78
2022-09-22T09:53:43.170Z,6.20
2022-09-22T09:56:23.973Z,6.28
2022-09-22T09:59:17.518Z,5.95
2022-09-22T10:01:48.110Z,6.00
2022-09-22T10:04:24.090Z,4.25
2022-09-22T10:06:52.608Z,5.18
2022-09-22T10:09:30.055Z,3.72
2022-09-22T10:12:04.344Z,4.78
2022-09-22T10:14:35.109Z,5.20
2022-09-22T10:17:04.039Z,5.05
2022-09-22T10:19:34.630Z,6.22
2022-09-22T10:22:25.225Z,6.70
2022-09-22T10:24:59.127Z,5.05
2022-09-22T10:27:31.181Z,3.28
2022-09-22T10:30:33.149Z,4.13
2022-09-22T10:33:23.179Z,6.47
2022-09-22T10:35:56.500Z,5.65
2022-09-22T10:41:00.197Z,5.20
2022-09-22T10:43:39.206Z,5.28
2022-09-22T10:46:32.580Z,3.83
2022-09-22T10:49:09.149Z,4.88
2022-09-22T10:51:54.930Z,5.47
2022-09-22T10:54:53.359Z,6.10
2022-09-22T10:57:38.808Z,6.88
2022-09-22T11:00:18.076Z,5.30
2022-09-22T11:03:12.422Z,6.07
2022-09-22T11:06:07.662Z,4.25
2022-09-22T11:09:03.977Z,6.35
2022-09-22T11:11:56.991Z,5.57
2022-09-22T11:14:42.511Z,6.70
2022-09-22T11:17:21.406Z,6.15
2022-09-22T11:20:23.145Z,4.75
2022-09-22T11:23:17.148Z,7.00
2022-09-22T11:25:58.663Z,4.53
2022-09-22T11:28:45.123Z,4.10
2022-09-22T11:31:24.969Z,6.03
2022-09-22T11:34:32.127Z,4.78
2022-09-22T11:37:25.732Z,5.60
2022-09-22T11:40:17.292Z,4.93
2022-09-22T11:42:53.185Z,6.00
2022-09-22T11:45:38.564Z,3.97
2022-09-22T11:48:16.719Z,4.57
2022-09-22T11:50:57.599Z,5.18
2022-09-22T11:53:53.505Z,3.50
2022-09-22T11:56:34.548Z,3.70
2022-09-22T11:59:11.826Z,3.90
2022-09-22T12:01:40.885Z,3.45
2022-09-22T12:04:18.437Z,5.15
2022-09-22T12:06:50.927Z,3.67
2022-09-22T12:09:35.974Z,3.20
2022-09-22T12:12:07.442Z,4.05
2022-09-22T12:14:38.408Z,4.45
2022-09-22T12:17:13.999Z,4.13
2022-09-22T12:19:56.280Z,4.30
2022-09-22T12:22:31.822Z,2.83
2022-09-22T12:25:00.161Z,5.15
2022-09-22T12:27:31.152Z,5.30
2022-09-22T12:30:01.672Z,3.88
2022-09-22T12:32:36.965Z,4.65
2022-09-22T12:35:06.963Z,5.40
2022-09-22T12:37:39.723Z,4.53
2022-09-22T12:40:23.734Z,3.28
2022-09-22T12:42:55.199Z,2.38
2022-09-22T12:45:32.627Z,3.13
2022-09-22T12:48:04.787Z,4.35
2022-09-22T12:50:40.243Z,3.85
2022-09-22T12:53:24.697Z,3.58
2022-09-22T12:55:54.625Z,4.72
2022-09-22T12:58:42.942Z,4.18
2022-09-22T13:01:34.214Z,3.35
2022-09-22T13:04:17.243Z,4.03
2022-09-22T13:06:57.626Z,3.15
2022-09-22T13:09:30.212Z,4.80
2022-09-22T13:12:31.487Z,4.07
2022-09-22T13:15:17.025Z,4.43
2022-09-22T13:17:46.825Z,5.25
2022-09-22T13:20:16.788Z,3.78
2022-09-22T13:22:45.146Z,7.82
2022-09-22T13:25:22.857Z,4.07
2022-09-22T13:28:07.667Z,7.20
2022-09-22T13:30:36.758Z,4.03
2022-09-22T13:33:05.752Z,5.93
2022-09-22T13:35:36.967Z,6.75
2022-09-22T13:38:07.558Z,5.15
2022-09-22T13:40:37.285Z,7.00
2022-09-22T13:43:09.465Z,6.13
2022-09-22T13:45:40.166Z,4.75
2022-09-22T13:48:11.772Z,4.20
2022-09-22T13:50:46.563Z,5.00
2022-09-22T13:53:18.355Z,4.32
2022-09-22T13:55:49.867Z,4.68
2022-09-22T13:58:25.720Z,6.53
2022-09-22T14:01:14.611Z,5.05
2022-09-22T14:03:44.075Z,7.18
2022-09-22T14:06:15.393Z,5.15
2022-09-22T14:08:46.008Z,8.30
2022-09-22T14:11:18.355Z,7.93
2022-09-22T14:13:59.053Z,6.38
2022-09-22T14:16:32.516Z,5.00
2022-09-22T14:19:06.105Z,5.97
2022-09-22T14:24:03.496Z,5.43
2022-09-22T14:26:39.101Z,7.13
2022-09-22T14:29:18.891Z,7.78
2022-09-22T14:31:52.923Z,7.13
2022-09-22T14:34:27.236Z,5.60
2022-09-22T14:36:56.520Z,7.10
2022-09-22T14:39:31.766Z,6.57
2022-09-22T14:42:09.392Z,6.80
2022-09-22T14:44:45.722Z,6.15
2022-09-22T14:47:27.488Z,5.82
2022-09-22T14:50:12.231Z,6.68
2022-09-22T14:52:44.484Z,4.38
2022-09-22T14:55:20.167Z,6.75
2022-09-22T14:57:51.236Z,4.82
2022-09-22T15:00:37.802Z,5.45
2022-09-22T15:03:19.483Z,8.43
2022-09-22T15:05:48.044Z,6.55
2022-09-22T15:08:19.033Z,7.32
2022-09-22T15:10:54.520Z,7.75
2022-09-22T15:13:32.788Z,5.20
2022-09-22T15:16:01.482Z,5.05
2022-09-22T15:18:31.095Z,6.65
2022-09-22T15:21:05.674Z,9.20
2022-09-22T15:23:41.357Z,6.25
2022-09-22T15:26:16.362Z,7.25
2022-09-22T15:28:48.499Z,9.13
2022-09-22T15:31:22.481Z,7.20
2022-09-22T15:33:50.919Z,7.85
2022-09-22T15:36:21.581Z,6.75
2022-09-22T15:38:50.267Z,6.95
2022-09-22T15:41:18.529Z,6.75
2022-09-22T15:43:49.222Z,9.38
2022-09-22T15:46:29.379Z,6.32
2022-09-22T15:49:00.991Z,8.05
2022-09-22T15:51:30.737Z,6.97
2022-09-22T15:53:59.023Z,7.03
2022-09-22T15:56:29.652Z,6.53
2022-09-22T15:59:01.403Z,6.07
2022-09-22T16:01:29.925Z,7.50
2022-09-22T16:04:00.379Z,8.82
2022-09-22T16:06:29.446Z,8.45
2022-09-22T16:08:58.605Z,7.43
2022-09-22T16:11:29.723Z,8.10
2022-09-22T16:14:02.292Z,7.75
2022-09-22T16:16:31.408Z,7.93
2022-09-22T16:18:59.998Z,7.78
2022-09-22T16:21:30.653Z,7.20
2022-09-22T16:24:03.537Z,6.68
2022-09-22T16:26:33.633Z,9.23
2022-09-22T16:29:03.787Z,7.78
2022-09-22T16:31:32.008Z,7.72
2022-09-22T16:34:02.073Z,7.35
2022-09-22T16:36:32.969Z,8.70
2022-09-22T16:39:02.516Z,6.55
2022-09-22T16:41:33.036Z,7.75
2022-09-22T16:44:03.426Z,5.47
2022-09-22T16:46:34.496Z,7.55
2022-09-22T16:49:05.538Z,8.07
2022-09-22T16:51:35.575Z,5.88
2022-09-22T16:54:04.409Z,8.30
2022-09-22T16:56:34.575Z,8.23
2022-09-22T16:59:04.939Z,7.25
2022-09-22T17:01:36.644Z,8.45
2022-09-22T17:04:05.760Z,7.28
2022-09-22T17:06:34.188Z,9.02
2022-09-22T17:09:02.461Z,10.00
2022-09-22T17:11:34.613Z,10.43
2022-09-22T17:14:12.103Z,7.95
2022-09-22T17:16:42.469Z,9.38
2022-09-22T17:19:17.294Z,8.38
2022-09-22T17:24:15.230Z,8.85
2022-09-22T17:26:47.476Z,12.40
2022-09-22T17:29:18.865Z,9.48
2022-09-22T17:31:49.073Z,7.70
2022-09-22T17:34:17.745Z,9.73
2022-09-22T17:36:46.310Z,9.05
2022-09-22T17:39:14.737Z,9.18
2022-09-22T17:41:45.568Z,13.63
2022-09-22T17:44:14.834Z,7.53
2022-09-22T17:46:58.556Z,10.07
2022-09-22T17:49:44.020Z,10.30
2022-09-22T17:52:30.070Z,10.00
2022-09-22T17:55:08.429Z,8.32
2022-09-22T17:57:38.505Z,9.30
2022-09-22T18:00:08.662Z,11.18
2022-09-22T18:02:39.070Z,11.45
2022-09-22T18:05:09.665Z,11.35
2022-09-22T18:07:40.391Z,11.85
2022-09-22T18:10:10.712Z,12.43
2022-09-22T18:12:39.522Z,9.20
2022-09-22T18:15:09.637Z,9.05
2022-09-22T18:17:41.692Z,9.98
2022-09-22T18:20:11.881Z,9.90
2022-09-22T18:22:40.226Z,11.98
2022-09-22T18:25:10.582Z,10.80
2022-09-22T18:27:40.026Z,11.68
2022-09-22T18:30:11.332Z,10.65
2022-09-22T18:32:42.936Z,15.77
2022-09-22T18:35:11.369Z,20.70
2022-09-22T18:37:39.631Z,17.73
2022-09-22T18:40:09.240Z,13.48
2022-09-22T18:42:37.638Z,14.95
2022-09-22T18:45:06.326Z,11.48
2022-09-22T18:47:41.997Z,9.95
2022-09-22T18:50:13.057Z,15.27
2022-09-22T18:52:43.333Z,15.27
2022-09-22T18:55:18.745Z,12.90
2022-09-22T18:57:48.352Z,12.38
2022-09-22T19:00:22.112Z,14.35
2022-09-22T19:02:50.945Z,14.45
2022-09-22T19:05:20.918Z,11.02
2022-09-22T19:07:49.235Z,16.77
2022-09-22T19:10:22.250Z,16.73
2022-09-22T19:12:51.059Z,15.40
2022-09-22T19:15:20.180Z,13.05
2022-09-22T19:17:50.750Z,12.25
2022-09-22T19:20:23.385Z,13.55
2022-09-22T19:22:52.732Z,11.65
2022-09-22T19:25:22.449Z,12.18
2022-09-22T19:27:52.387Z,13.68
2022-09-22T19:30:24.079Z,12.43
2022-09-22T19:32:54.572Z,11.40
2022-09-22T19:35:24.382Z,9.93
2022-09-22T19:37:52.671Z,10.57
2022-09-22T19:40:24.651Z,13.25
2022-09-22T19:42:53.754Z,14.48
2022-09-22T19:45:23.909Z,16.02
2022-09-22T19:47:52.538Z,17.75
2022-09-22T19:50:20.977Z,17.15
2022-09-22T19:52:50.952Z,14.32
2022-09-22T19:55:21.285Z,14.70
2022-09-22T19:57:54.200Z,13.93
2022-09-22T20:00:26.168Z,16.60
2022-09-22T20:02:58.973Z,12.70
2022-09-22T20:05:30.190Z,13.85
2022-09-22T20:08:01.560Z,12.40
2022-09-22T20:10:30.228Z,9.05
2022-09-22T20:12:59.408Z,10.98
2022-09-22T20:15:28.541Z,11.15
2022-09-22T20:17:56.752Z,10.52
2022-09-22T20:20:26.949Z,12.57
2022-09-22T20:23:00.687Z,12.77
2022-09-22T20:27:59.029Z,11.40
2022-09-22T20:30:27.588Z,11.02
2022-09-22T20:32:55.911Z,9.43
2022-09-22T20:35:24.495Z,11.43
2022-09-22T20:37:58.388Z,9.93
2022-09-22T20:40:29.204Z,10.52
2022-09-22T20:42:58.134Z,11.23
2022-09-22T20:45:26.476Z,11.13
2022-09-22T20:47:54.937Z,11.95
2022-09-22T20:50:23.227Z,9.70
2022-09-22T20:52:51.798Z,14.60
2022-09-22T20:55:20.322Z,13.48
2022-09-22T20:57:50.240Z,14.93
2022-09-22T21:00:18.750Z,14.02
2022-09-22T21:02:47.418Z,12.32
2022-09-22T21:05:15.698Z,12.88
2022-09-22T21:07:44.001Z,13.20
2022-09-22T21:10:41.291Z,12.48
2022-09-22T21:13:11.000Z,14.60
2022-09-22T21:15:39.690Z,11.10
2022-09-22T21:18:08.027Z,13.60
2022-09-22T21:20:36.437Z,15.32
2022-09-22T21:23:04.672Z,15.50
2022-09-22T21:25:32.809Z,15.30
2022-09-22T21:28:01.066Z,16.23
2022-09-22T21:30:30.777Z,13.45
2022-09-22T21:32:58.920Z,18.40
2022-09-22T21:35:27.271Z,15.88
2022-09-22T21:37:57.139Z,13.23
2022-09-22T21:40:25.444Z,13.18
2022-09-22T21:42:53.805Z,13.77
2022-09-22T21:45:22.181Z,15.55
2022-09-22T21:47:52.764Z,15.07
2022-09-22T21:50:23.305Z,16.35
2022-09-22T21:52:51.716Z,16.77
2022-09-22T21:55:20.392Z,15.18
2022-09-22T21:57:48.881Z,14.18
2022-09-22T22:00:24.774Z,14.65
2022-09-22T22:03:19.272Z,12.68
2022-09-22T22:05:47.813Z,13.32
2022-09-22T22:08:16.048Z,12.82
2022-09-22T22:10:44.238Z,13.02
2022-09-22T22:13:12.888Z,14.18
2022-09-22T22:15:41.209Z,12.27
2022-09-22T22:18:11.013Z,12.85
2022-09-22T22:20:39.226Z,14.13
2022-09-22T22:23:09.463Z,13.43
2022-09-22T22:25:39.214Z,13.60
2022-09-22T22:28:08.697Z,14.60
2022-09-22T22:30:41.490Z,13.82
2022-09-22T22:33:12.471Z,15.33
2022-09-22T22:35:49.904Z,14.57
2022-09-22T22:38:18.978Z,14.98
2022-09-22T22:40:47.505Z,13.70
2022-09-22T22:43:18.019Z,14.70
2022-09-22T22:45:47.442Z,13.73
2022-09-22T22:48:17.524Z,16.08
2022-09-22T22:50:45.900Z,14.75
2022-09-22T22:53:15.017Z,19.00
2022-09-22T22:55:55.686Z,16.30
2022-09-22T22:58:24.869Z,16.38
2022-09-22T23:01:00.738Z,16.40
2022-09-22T23:03:30.799Z,16.88
2022-09-22T23:06:00.003Z,14.65
2022-09-22T23:08:29.424Z,14.80
2022-09-22T23:11:02.467Z,14.35
2022-09-22T23:13:31.451Z,14.35
2022-09-22T23:16:04.744Z,15.30
2022-09-22T23:18:35.797Z,14.38
2022-09-22T23:21:04.762Z,16.00
2022-09-22T23:23:33.202Z,16.77
2022-09-22T23:26:02.837Z,15.07
2022-09-22T23:28:32.137Z,16.50
2022-09-22T23:31:03.060Z,16.10
2022-09-22T23:33:32.285Z,14.90
2022-09-22T23:36:02.825Z,13.00
2022-09-22T23:38:33.042Z,14.95
2022-09-22T23:41:02.004Z,13.60
2022-09-22T23:43:32.284Z,14.30
2022-09-22T23:46:01.048Z,14.50
2022-09-22T23:48:31.418Z,12.35
2022-09-22T23:51:01.950Z,13.25
2022-09-22T23:53:33.041Z,12.52
2022-09-22T23:56:02.500Z,14.60
2022-09-22T23:58:31.342Z,12.60
